createdAt,value
2018-11-05T00:00:38.230Z,14.97
2018-11-05T00:03:09.529Z,13.00
2018-11-05T00:05:40.263Z,16.67
2018-11-05T00:08:11.060Z,16.33
2018-11-05T00:10:41.772Z,17.30
2018-11-05T00:13:12.525Z,21.23
2018-11-05T00:15:43.299Z,15.90
2018-11-05T00:18:14.060Z,15.63
2018-11-05T00:20:44.720Z,17.23
2018-11-05T00:23:15.651Z,17.03
2018-11-05T00:25:46.346Z,19.07
2018-11-05T00:28:17.035Z,16.97
2018-11-05T00:30:47.785Z,16.07
2018-11-05T00:33:18.599Z,20.27
2018-11-05T00:35:49.305Z,20.63
2018-11-05T00:38:20.073Z,18.63
2018-11-05T00:40:50.740Z,20.33
2018-11-05T00:43:21.644Z,19.60
2018-11-05T00:45:52.561Z,17.23
2018-11-05T00:48:23.439Z,17.07
2018-11-05T00:50:54.192Z,17.77
2018-11-05T00:53:24.981Z,15.80
2018-11-05T00:55:55.703Z,14.00
2018-11-05T00:58:26.486Z,15.13
2018-11-05T01:00:57.165Z,14.87
2018-11-05T01:03:34.432Z,13.90
2018-11-05T01:06:08.047Z,13.30
2018-11-05T01:08:38.892Z,14.27
2018-11-05T01:11:09.620Z,13.53
2018-11-05T01:13:40.296Z,14.23
2018-11-05T01:16:10.974Z,14.17
2018-11-05T01:18:42.554Z,15.03
2018-11-05T01:21:13.355Z,14.30
2018-11-05T01:23:44.058Z,17.40
2018-11-05T01:26:14.781Z,13.47
2018-11-05T01:28:45.519Z,15.87
2018-11-05T01:31:16.229Z,11.50
2018-11-05T01:33:46.941Z,14.27
2018-11-05T01:36:17.570Z,18.37
2018-11-05T01:38:48.272Z,17.03
2018-11-05T01:41:18.909Z,14.53
2018-11-05T01:43:49.712Z,12.90
2018-11-05T01:46:20.391Z,14.97
2018-11-05T01:48:51.156Z,15.33
2018-11-05T01:51:21.952Z,17.20
2018-11-05T01:53:52.739Z,16.47
2018-11-05T01:56:23.454Z,15.43
2018-11-05T01:58:54.408Z,16.70
2018-11-05T02:01:25.118Z,15.07
2018-11-05T02:03:55.974Z,17.83
2018-11-05T02:06:26.737Z,18.40
2018-11-05T02:08:57.587Z,17.90
2018-11-05T02:11:28.287Z,18.40
2018-11-05T02:13:59.086Z,17.47
2018-11-05T02:16:29.825Z,17.63
2018-11-05T02:19:00.517Z,15.33
2018-11-05T02:21:31.309Z,20.13
2018-11-05T02:24:02.091Z,19.53
2018-11-05T02:26:32.819Z,16.80
2018-11-05T02:29:03.631Z,21.43
2018-11-05T02:31:34.275Z,16.20
2018-11-05T02:34:05.098Z,16.30
2018-11-05T02:36:35.846Z,16.83
2018-11-05T02:39:09.803Z,15.57
2018-11-05T02:41:40.498Z,18.23
2018-11-05T02:44:11.158Z,14.93
2018-11-05T02:46:41.981Z,15.60
2018-11-05T02:49:12.654Z,15.37
2018-11-05T02:51:43.570Z,20.47
2018-11-05T02:54:14.414Z,17.53
2018-11-05T02:56:45.114Z,17.83
2018-11-05T02:59:15.882Z,18.07
2018-11-05T03:01:46.610Z,17.43
2018-11-05T03:04:17.352Z,16.27
2018-11-05T03:06:48.097Z,15.67
2018-11-05T03:09:18.822Z,16.30
2018-11-05T03:11:49.521Z,17.17
2018-11-05T03:14:20.207Z,15.37
2018-11-05T03:16:57.383Z,19.50
2018-11-05T03:19:28.102Z,18.10
2018-11-05T03:22:05.339Z,15.23
2018-11-05T03:24:36.113Z,21.50
2018-11-05T03:27:07.334Z,14.77
2018-11-05T03:29:38.128Z,14.13
2018-11-05T03:32:09.021Z,13.47
2018-11-05T03:34:39.863Z,13.17
2018-11-05T03:37:10.589Z,14.50
2018-11-05T03:39:41.347Z,16.30
2018-11-05T03:42:12.058Z,19.23
2018-11-05T03:44:42.766Z,16.77
2018-11-05T03:47:13.547Z,18.23
2018-11-05T03:49:44.299Z,17.27
2018-11-05T03:52:14.965Z,16.10
2018-11-05T03:54:45.586Z,15.30
2018-11-05T03:57:22.766Z,17.63
2018-11-05T03:59:56.385Z,17.80
2018-11-05T04:02:27.043Z,19.30
2018-11-05T04:04:57.778Z,18.00
2018-11-05T04:07:28.492Z,17.87
2018-11-05T04:09:59.145Z,18.33
2018-11-05T04:12:32.943Z,15.03
2018-11-05T04:15:10.722Z,19.47
2018-11-05T04:17:41.494Z,15.40
2018-11-05T04:20:14.315Z,18.57
2018-11-05T04:22:45.821Z,19.43
2018-11-05T04:25:16.572Z,18.57
2018-11-05T04:27:47.369Z,20.27
2018-11-05T04:30:18.187Z,19.70
2018-11-05T04:32:49.116Z,18.60
2018-11-05T04:35:19.872Z,17.53
2018-11-05T04:37:50.620Z,20.10
2018-11-05T04:40:21.454Z,20.10
2018-11-05T04:42:52.282Z,20.10
2018-11-05T04:45:23.042Z,18.63
2018-11-05T04:47:53.782Z,17.00
2018-11-05T04:50:25.328Z,17.27
2018-11-05T04:52:56.517Z,16.93
2018-11-05T04:55:27.218Z,19.17
2018-11-05T04:57:58.003Z,15.83
2018-11-05T05:00:28.811Z,16.73
2018-11-05T05:02:59.622Z,19.67
2018-11-05T05:05:30.379Z,16.67
2018-11-05T05:08:01.083Z,15.77
2018-11-05T05:10:31.771Z,15.73
2018-11-05T05:13:02.618Z,17.07
2018-11-05T05:15:33.422Z,18.23
2018-11-05T05:18:04.639Z,16.90
2018-11-05T05:20:35.347Z,13.63
2018-11-05T05:23:06.451Z,19.00
2018-11-05T05:25:36.957Z,15.90
2018-11-05T05:28:08.282Z,15.27
2018-11-05T05:30:39.137Z,18.43
2018-11-05T05:33:10.079Z,13.13
2018-11-05T05:35:40.772Z,18.20
2018-11-05T05:38:11.660Z,15.60
2018-11-05T05:40:42.482Z,23.63
2018-11-05T05:43:13.199Z,14.40
2018-11-05T05:45:43.829Z,15.77
2018-11-05T05:48:14.530Z,16.10
2018-11-05T05:50:45.286Z,16.70
2018-11-05T05:53:16.502Z,14.53
2018-11-05T05:55:47.159Z,19.20
2018-11-05T05:58:17.925Z,17.07
2018-11-05T06:00:48.566Z,18.33
2018-11-05T06:03:19.339Z,15.93
2018-11-05T06:05:50.075Z,13.13
2018-11-05T06:08:21.112Z,17.37
2018-11-05T06:10:52.044Z,19.97
2018-11-05T06:13:23.290Z,14.77
2018-11-05T06:15:54.256Z,21.87
2018-11-05T06:18:25.104Z,15.40
2018-11-05T06:20:56.025Z,25.73
2018-11-05T06:23:27.078Z,30.17
2018-11-05T06:25:57.808Z,11.37
2018-11-05T06:28:28.813Z,16.30
2018-11-05T06:31:00.535Z,22.03
2018-11-05T06:33:31.807Z,19.47
2018-11-05T06:36:02.764Z,25.63
2018-11-05T06:38:33.631Z,41.87
2018-11-05T06:41:04.508Z,23.17
2018-11-05T06:43:35.261Z,15.53
2018-11-05T06:46:06.281Z,12.03
2018-11-05T06:48:37.529Z,12.93
2018-11-05T06:51:08.311Z,24.97
2018-11-05T06:53:39.171Z,15.20
2018-11-05T06:56:09.919Z,18.07
2018-11-05T06:58:40.764Z,16.60
2018-11-05T07:01:11.718Z,26.20
2018-11-05T07:03:42.721Z,16.10
2018-11-05T07:06:13.631Z,19.60
2018-11-05T07:08:44.519Z,16.00
2018-11-05T07:11:15.435Z,14.17
2018-11-05T07:13:46.228Z,16.50
2018-11-05T07:16:17.159Z,19.10
2018-11-05T07:18:48.180Z,16.83
2018-11-05T07:21:19.148Z,15.17
2018-11-05T07:23:50.047Z,18.13
2018-11-05T07:26:20.870Z,16.07
2018-11-05T07:28:51.788Z,16.60
2018-11-05T07:31:22.635Z,20.17
2018-11-05T07:33:53.732Z,23.50
2018-11-05T07:36:24.538Z,22.07
2018-11-05T07:38:55.263Z,22.43
2018-11-05T07:41:26.140Z,19.53
2018-11-05T07:43:56.943Z,18.43
2018-11-05T07:46:27.711Z,16.70
2018-11-05T07:48:58.650Z,19.70
2018-11-05T07:51:29.491Z,17.83
2018-11-05T07:54:00.858Z,13.20
2018-11-05T07:56:31.746Z,16.43
2018-11-05T07:59:02.604Z,17.27
2018-11-05T08:01:33.710Z,19.07
2018-11-05T08:04:04.542Z,17.73
2018-11-05T08:06:35.373Z,20.20
2018-11-05T08:09:09.110Z,17.00
2018-11-05T08:11:40.263Z,18.10
2018-11-05T08:14:11.121Z,14.80
2018-11-05T08:16:41.896Z,16.77
2018-11-05T08:19:19.253Z,21.20
2018-11-05T08:21:50.053Z,18.67
2018-11-05T08:24:20.945Z,17.83
2018-11-05T08:26:51.699Z,18.20
2018-11-05T08:29:22.905Z,14.93
2018-11-05T08:31:53.761Z,18.57
2018-11-05T08:34:24.706Z,19.70
2018-11-05T08:36:55.739Z,18.10
2018-11-05T08:39:26.791Z,21.37
2018-11-05T08:41:57.606Z,18.17
2018-11-05T08:44:28.405Z,23.20
2018-11-05T08:46:59.467Z,22.50
2018-11-05T08:49:30.421Z,21.97
2018-11-05T08:52:01.242Z,20.20
2018-11-05T08:54:32.135Z,20.97
2018-11-05T08:57:02.983Z,19.27
2018-11-05T08:59:33.888Z,20.13
2018-11-05T09:02:04.739Z,18.50
2018-11-05T09:04:35.644Z,20.43
2018-11-05T09:07:06.866Z,19.43
2018-11-05T09:09:37.706Z,22.30
2018-11-05T09:12:08.708Z,19.70
2018-11-05T09:14:39.595Z,24.43
2018-11-05T09:17:10.441Z,20.13
2018-11-05T09:19:41.311Z,22.83
2018-11-05T09:22:12.295Z,20.67
2018-11-05T09:24:43.247Z,18.77
2018-11-05T09:27:14.004Z,19.83
2018-11-05T09:29:45.940Z,27.73
2018-11-05T09:32:16.900Z,23.70
2018-11-05T09:34:47.818Z,24.33
2018-11-05T09:37:18.668Z,26.30
2018-11-05T09:39:49.706Z,25.67
2018-11-05T09:42:20.722Z,24.63
2018-11-05T09:44:51.736Z,25.03
2018-11-05T09:47:22.586Z,22.13
2018-11-05T09:49:59.930Z,21.63
2018-11-05T09:52:30.835Z,23.00
2018-11-05T09:55:01.736Z,23.93
2018-11-05T09:57:32.691Z,21.53
2018-11-05T10:00:03.767Z,24.40
2018-11-05T10:02:39.652Z,21.90
2018-11-05T10:05:11.035Z,21.57
2018-11-05T10:07:41.854Z,19.27
2018-11-05T10:10:13.788Z,22.40
2018-11-05T10:12:44.739Z,23.40
2018-11-05T10:15:17.734Z,17.90
2018-11-05T10:17:48.710Z,20.10
2018-11-05T10:20:20.783Z,18.90
2018-11-05T10:22:51.647Z,19.73
2018-11-05T10:25:22.887Z,20.17
2018-11-05T10:27:54.084Z,21.23
2018-11-05T10:30:26.281Z,17.80
2018-11-05T10:32:57.109Z,19.47
2018-11-05T10:35:32.910Z,21.03
2018-11-05T10:38:03.760Z,21.67
2018-11-05T10:40:35.815Z,17.47
2018-11-05T10:43:07.373Z,16.33
2018-11-05T10:45:38.362Z,21.03
2018-11-05T10:48:09.226Z,14.03
2018-11-05T10:50:40.197Z,16.93
2018-11-05T10:53:11.144Z,16.40
2018-11-05T10:55:42.259Z,15.73
2018-11-05T10:58:13.385Z,17.20
2018-11-05T11:00:49.496Z,16.67
2018-11-05T11:03:21.208Z,16.77
2018-11-05T11:05:52.207Z,14.50
2018-11-05T11:08:23.146Z,15.70
2018-11-05T11:10:54.001Z,12.83
2018-11-05T11:13:24.824Z,15.50
2018-11-05T11:15:55.732Z,16.17
2018-11-05T11:18:29.416Z,15.33
2018-11-05T11:21:00.202Z,13.30
2018-11-05T11:23:30.959Z,13.23
2018-11-05T11:26:01.816Z,12.80
2018-11-05T11:28:32.661Z,13.27
2018-11-05T11:31:03.507Z,12.87
2018-11-05T11:33:34.310Z,13.93
2018-11-05T11:36:05.102Z,16.20
2018-11-05T11:38:35.811Z,13.73
2018-11-05T11:41:06.600Z,12.40
2018-11-05T11:43:37.297Z,14.10
2018-11-05T11:46:08.216Z,13.83
2018-11-05T11:48:38.998Z,12.77
2018-11-05T11:51:09.738Z,12.07
2018-11-05T11:53:40.474Z,13.70
2018-11-05T11:56:11.252Z,12.17
2018-11-05T11:58:48.561Z,13.57
2018-11-05T12:01:19.682Z,12.37
2018-11-05T12:03:52.851Z,13.23
2018-11-05T12:06:44.022Z,11.63
2018-11-05T12:09:16.475Z,10.97
2018-11-05T12:11:47.437Z,11.73
2018-11-05T12:14:21.580Z,13.03
2018-11-05T12:16:54.829Z,16.00
2018-11-05T12:19:29.518Z,13.40
2018-11-05T12:22:00.679Z,12.47
2018-11-05T12:24:31.682Z,11.67
2018-11-05T12:27:03.521Z,14.93
2018-11-05T12:29:34.431Z,12.13
2018-11-05T12:32:05.509Z,12.97
2018-11-05T12:34:36.590Z,11.20
2018-11-05T12:37:07.975Z,12.10
2018-11-05T12:39:39.342Z,13.80
2018-11-05T12:42:13.410Z,11.07
2018-11-05T12:44:46.308Z,14.47
2018-11-05T12:47:24.941Z,12.27
2018-11-05T12:49:56.273Z,13.70
2018-11-05T12:52:32.962Z,11.07
2018-11-05T12:55:07.296Z,13.23
2018-11-05T12:57:38.323Z,13.87
2018-11-05T13:00:20.226Z,14.40
2018-11-05T13:03:01.139Z,12.60
2018-11-05T13:05:33.186Z,11.17
2018-11-05T13:08:04.387Z,13.03
2018-11-05T13:10:35.969Z,12.50
2018-11-05T13:13:09.458Z,12.73
2018-11-05T13:15:46.130Z,12.50
2018-11-05T13:18:23.647Z,13.83
2018-11-05T13:20:55.569Z,11.47
2018-11-05T13:23:37.369Z,13.40
2018-11-05T13:26:13.711Z,12.33
2018-11-05T13:28:58.052Z,13.03
2018-11-05T13:31:34.737Z,11.27
2018-11-05T13:34:15.720Z,13.47
2018-11-05T13:37:05.873Z,11.93
2018-11-05T13:39:44.283Z,11.80
2018-11-05T13:42:21.221Z,11.23
2018-11-05T13:44:58.290Z,11.53
2018-11-05T13:53:47.782Z,13.33
2018-11-05T13:56:18.401Z,11.23
2018-11-05T13:58:50.046Z,14.60
2018-11-05T14:01:21.346Z,11.83
2018-11-05T14:03:52.478Z,11.93
2018-11-05T14:06:23.155Z,14.77
2018-11-05T14:08:53.836Z,10.57
2018-11-05T14:11:24.440Z,10.50
2018-11-05T14:13:55.255Z,11.60
2018-11-05T14:16:25.867Z,11.03
2018-11-05T15:09:31.631Z,12.37
2018-11-05T15:12:03.519Z,11.23
2018-11-05T15:14:50.637Z,12.93
2018-11-05T15:17:39.321Z,11.87
2018-11-05T15:20:13.698Z,12.43
2018-11-05T15:22:45.930Z,13.30
2018-11-05T15:25:32.575Z,14.40
2018-11-05T15:30:54.571Z,11.77
2018-11-05T15:33:59.772Z,13.20
2018-11-05T15:36:33.570Z,9.97
2018-11-05T15:39:06.570Z,10.70
2018-11-05T15:41:39.609Z,11.43
2018-11-05T15:44:31.527Z,10.63
2018-11-05T15:47:09.894Z,9.77
2018-11-05T15:49:41.180Z,13.00
2018-11-05T15:52:13.349Z,10.40
2018-11-05T15:54:43.788Z,13.10
2018-11-05T15:57:14.590Z,12.10
2018-11-05T15:59:45.598Z,9.50
2018-11-05T16:02:37.269Z,12.40
2018-11-05T16:05:10.290Z,12.53
2018-11-05T16:07:46.626Z,12.50
2018-11-05T16:13:02.190Z,10.73
2018-11-05T16:28:46.351Z,12.67
2018-11-05T16:31:17.350Z,12.83
2018-11-05T16:33:48.524Z,12.83
2018-11-05T16:36:19.440Z,14.67
2018-11-05T16:38:50.456Z,13.27
2018-11-05T16:41:21.452Z,12.90
2018-11-05T16:43:52.406Z,12.63
2018-11-05T16:46:23.540Z,10.90
2018-11-05T16:48:56.609Z,12.50
2018-11-05T16:51:28.770Z,15.33
2018-11-05T16:54:03.610Z,10.10
2018-11-05T16:56:35.496Z,12.37
2018-11-05T16:59:09.250Z,11.77
2018-11-05T17:01:42.049Z,10.47
2018-11-05T17:04:14.010Z,14.73
2018-11-05T17:06:45.083Z,13.93
2018-11-05T17:09:16.167Z,12.80
2018-11-05T17:15:03.305Z,16.10
2018-11-05T17:17:53.829Z,13.37
2018-11-05T17:24:32.770Z,14.90
2018-11-05T17:27:16.822Z,12.23
2018-11-05T17:29:57.427Z,15.40
2018-11-05T17:32:36.146Z,14.93
2018-11-05T17:35:09.147Z,13.33
2018-11-05T17:37:44.890Z,14.30
2018-11-05T17:40:22.029Z,14.10
2018-11-05T17:48:57.385Z,14.97
2018-11-05T17:55:13.930Z,13.23
2018-11-05T19:04:29.684Z,19.63
2018-11-05T19:07:02.663Z,15.93
2018-11-05T19:09:38.231Z,15.90
2018-11-05T19:12:14.278Z,15.73
2018-11-05T19:14:52.848Z,17.80
2018-11-05T19:17:26.409Z,17.23
2018-11-05T19:20:07.884Z,18.73
2018-11-05T19:22:51.181Z,15.97
2018-11-05T19:25:36.430Z,13.53
2018-11-05T19:31:19.884Z,11.70
2018-11-05T19:51:11.609Z,12.57
2018-11-05T19:53:50.170Z,11.87
2018-11-05T19:56:47.623Z,13.87
2018-11-05T20:38:28.079Z,16.07
2018-11-05T20:41:34.617Z,14.87
2018-11-05T21:14:43.063Z,16.00
2018-11-05T21:24:16.710Z,13.43
2018-11-05T21:27:06.350Z,14.13
2018-11-05T21:32:25.834Z,13.83
2018-11-05T21:34:58.543Z,13.33
2018-11-05T21:37:30.777Z,15.27
2018-11-05T21:40:02.912Z,18.50
2018-11-05T21:42:38.896Z,15.83
2018-11-05T21:45:14.256Z,17.17
2018-11-05T21:47:48.968Z,18.67
2018-11-05T21:50:22.150Z,17.03
2018-11-05T21:52:56.722Z,19.90
2018-11-05T21:55:31.645Z,17.80
2018-11-05T21:58:09.729Z,22.37
2018-11-05T22:07:43.457Z,21.10
2018-11-05T22:13:09.151Z,18.03
2018-11-05T22:15:55.958Z,17.23
2018-11-05T22:18:36.090Z,20.10
2018-11-05T22:21:09.838Z,16.93
2018-11-05T22:23:48.790Z,19.40
2018-11-05T22:29:19.110Z,18.80
2018-11-05T22:48:46.231Z,19.70
2018-11-05T22:51:19.689Z,15.50
2018-11-05T22:53:51.256Z,15.27
2018-11-05T22:56:24.629Z,12.10
2018-11-05T22:58:58.426Z,13.90
2018-11-05T23:01:34.849Z,12.80
2018-11-05T23:04:10.030Z,14.33
2018-11-05T23:20:21.549Z,12.70
